createdAt,value
2018-11-22T00:00:19.675Z,82.55
2018-11-22T00:05:18.321Z,82.52
2018-11-22T00:10:17.033Z,82.14
2018-11-22T00:15:16.206Z,82.17
2018-11-22T00:20:14.922Z,82.36
2018-11-22T00:25:14.533Z,82.26
2018-11-22T00:30:17.194Z,82.79
2018-11-22T00:35:16.534Z,82.58
2018-11-22T00:40:16.780Z,82.24
2018-11-22T00:45:17.147Z,82.38
2018-11-22T00:50:16.800Z,82.32
2018-11-22T00:55:17.187Z,82.10
2018-11-22T01:00:18.546Z,82.32
2018-11-22T01:05:18.492Z,82.68
2018-11-22T01:10:18.728Z,82.19
2018-11-22T01:15:17.641Z,82.71
2018-11-22T01:20:20.539Z,82.60
2018-11-22T01:25:19.955Z,82.30
2018-11-22T01:30:20.909Z,82.49
2018-11-22T01:35:20.680Z,82.50
2018-11-22T01:40:20.569Z,82.50
2018-11-22T01:45:20.710Z,82.69
2018-11-22T01:50:19.623Z,83.02
2018-11-22T01:55:19.648Z,83.35
2018-11-22T02:00:21.736Z,82.91
2018-11-22T02:05:21.771Z,83.50
2018-11-22T02:10:21.390Z,83.22
2018-11-22T02:15:21.457Z,83.13
2018-11-22T02:20:21.256Z,83.40
2018-11-22T02:25:20.988Z,82.79
2018-11-22T02:30:22.469Z,83.27
2018-11-22T02:35:21.463Z,83.01
2018-11-22T02:40:21.699Z,83.14
2018-11-22T02:45:22.148Z,83.20
2018-11-22T02:50:23.082Z,82.66
2018-11-22T02:55:21.716Z,83.58
2018-11-22T03:00:38.044Z,83.89
2018-11-22T03:05:36.676Z,83.82
2018-11-22T03:10:35.400Z,83.49
2018-11-22T03:15:34.043Z,83.91
2018-11-22T03:20:32.697Z,82.97
2018-11-22T03:25:31.334Z,83.25
2018-11-22T03:30:29.980Z,82.98
2018-11-22T03:35:29.043Z,83.29
2018-11-22T03:40:27.813Z,83.41
2018-11-22T03:45:26.933Z,83.59
2018-11-22T03:50:26.763Z,83.74
2018-11-22T03:55:25.420Z,83.52
2018-11-22T04:00:25.733Z,82.90
2018-11-22T04:05:25.366Z,82.39
2018-11-22T04:10:25.508Z,82.76
2018-11-22T04:15:24.358Z,83.02
2018-11-22T04:20:24.324Z,83.02
2018-11-22T04:25:24.130Z,83.69
2018-11-22T04:30:24.396Z,83.62
2018-11-22T04:35:24.436Z,83.21
2018-11-22T04:40:25.307Z,83.82
2018-11-22T04:45:23.944Z,83.45
2018-11-22T04:50:24.005Z,84.23
2018-11-22T04:55:22.652Z,84.25
2018-11-22T05:00:22.799Z,84.69
2018-11-22T05:05:25.717Z,84.77
2018-11-22T05:10:25.808Z,84.52
2018-11-22T05:15:26.152Z,83.95
2018-11-22T05:20:24.860Z,83.75
2018-11-22T05:25:23.498Z,84.05
2018-11-22T05:30:24.426Z,84.26
2018-11-22T05:35:23.534Z,83.84
2018-11-22T05:40:26.424Z,84.13
2018-11-22T05:45:26.498Z,84.07
2018-11-22T05:50:29.163Z,84.68
2018-11-22T05:55:27.805Z,84.34
2018-11-22T06:00:30.456Z,83.41
2018-11-22T06:05:30.284Z,84.01
2018-11-22T06:10:30.734Z,83.78
2018-11-22T06:15:29.290Z,83.38
2018-11-22T06:20:29.286Z,83.71
2018-11-22T06:25:27.943Z,83.78
2018-11-22T06:30:30.765Z,83.29
2018-11-22T06:35:30.449Z,83.20
2018-11-22T06:40:29.141Z,83.02
2018-11-22T06:45:29.064Z,83.01
2018-11-22T06:50:28.145Z,82.93
2018-11-22T06:55:33.931Z,83.30
2018-11-22T07:00:33.441Z,83.39
2018-11-22T07:05:32.187Z,83.14
2018-11-22T07:10:30.873Z,82.93
2018-11-22T07:15:29.594Z,82.58
2018-11-22T07:20:28.563Z,82.65
2018-11-22T07:25:27.471Z,82.48
2018-11-22T07:30:27.902Z,82.76
2018-11-22T07:35:28.383Z,82.43
2018-11-22T07:40:28.588Z,82.67
2018-11-22T07:45:29.037Z,82.44
2018-11-22T07:50:27.736Z,82.65
2018-11-22T07:55:26.439Z,81.77
2018-11-22T08:00:26.801Z,81.41
2018-11-22T08:05:26.616Z,82.05
2018-11-22T08:10:25.299Z,81.35
2018-11-22T08:15:25.665Z,81.10
2018-11-22T08:20:24.987Z,80.46
2018-11-22T08:25:24.709Z,81.29
2018-11-22T08:30:24.465Z,79.76
2018-11-22T08:35:23.337Z,79.74
2018-11-22T08:40:23.586Z,79.71
2018-11-22T08:45:23.203Z,80.04
2018-11-22T08:50:25.943Z,79.58
2018-11-22T08:55:24.605Z,79.64
2018-11-22T09:00:25.380Z,80.42
2018-11-22T09:05:25.713Z,79.56
2018-11-22T09:10:25.323Z,80.34
2018-11-22T09:15:31.224Z,80.33
2018-11-22T09:20:26.319Z,80.08
2018-11-22T09:25:25.021Z,78.94
2018-11-22T09:30:25.572Z,78.98
2018-11-22T09:35:25.462Z,79.23
2018-11-22T09:40:25.837Z,78.61
2018-11-22T09:45:43.351Z,78.49
2018-11-22T09:50:42.076Z,78.72
2018-11-22T09:55:40.743Z,78.45
2018-11-22T10:00:39.405Z,78.71
2018-11-22T10:05:38.147Z,78.39
2018-11-22T10:10:38.632Z,78.05
2018-11-22T10:15:38.297Z,77.92
2018-11-22T10:20:36.974Z,77.79
2018-11-22T10:25:35.646Z,78.75
2018-11-22T10:30:34.306Z,77.30
2018-11-22T10:35:34.731Z,77.11
2018-11-22T12:20:30.083Z,76.38
2018-11-22T12:25:28.318Z,76.01
2018-11-22T12:30:27.327Z,76.38
2018-11-22T12:35:30.485Z,76.78
2018-11-22T12:40:28.348Z,76.92
2018-11-22T12:45:26.204Z,76.99
2018-11-22T12:50:23.652Z,77.29
2018-11-22T12:55:21.148Z,76.22
2018-11-22T13:00:18.937Z,76.26
2018-11-22T13:05:17.667Z,76.42
2018-11-22T13:10:16.545Z,76.88
2018-11-22T13:15:15.472Z,76.15
2018-11-22T13:20:14.397Z,76.30
2018-11-22T13:25:13.575Z,76.11
2018-11-22T13:30:25.941Z,77.00
2018-11-22T13:35:23.480Z,76.75
2018-11-22T13:40:20.949Z,77.08
2018-11-22T13:45:20.760Z,76.53
2018-11-22T13:50:22.906Z,76.88
2018-11-22T13:55:20.432Z,77.06
2018-11-22T14:00:22.171Z,77.22
2018-11-22T14:05:19.701Z,76.97
2018-11-22T14:10:18.511Z,77.48
2018-11-22T14:15:32.046Z,78.09
2018-11-22T14:20:30.969Z,78.06
2018-11-22T14:25:28.843Z,78.15
2018-11-22T14:30:27.932Z,76.96
2018-11-22T14:35:26.068Z,77.29
2018-11-22T14:40:25.169Z,77.27
2018-11-22T14:45:23.441Z,77.61
2018-11-22T14:50:24.580Z,77.58
2018-11-22T14:55:22.076Z,77.61
2018-11-22T15:00:19.717Z,77.46
2018-11-22T15:05:17.218Z,77.69
2018-11-22T15:10:15.857Z,78.09
2018-11-22T15:15:15.532Z,77.73
2018-11-22T15:20:14.226Z,77.62
2018-11-22T15:25:16.475Z,77.89
2018-11-22T15:30:16.683Z,78.12
2018-11-22T15:35:15.408Z,77.60
2018-11-22T15:40:14.196Z,77.71
2018-11-22T15:45:13.222Z,77.81
2018-11-22T15:50:12.305Z,77.59
2018-11-22T15:55:10.378Z,77.95
2018-11-22T16:00:12.503Z,77.93
2018-11-22T16:05:11.205Z,78.21
2018-11-22T16:10:15.073Z,78.20
2018-11-22T16:15:27.482Z,78.04
2018-11-22T16:20:28.196Z,78.27
2018-11-22T16:25:25.723Z,78.31
2018-11-22T16:30:25.981Z,78.56
2018-11-22T16:35:25.032Z,78.14
2018-11-22T16:40:23.912Z,78.80
2018-11-22T16:45:24.449Z,78.62
2018-11-22T16:50:23.980Z,78.74
2018-11-22T16:55:21.820Z,78.75
2018-11-22T17:00:24.684Z,78.75
2018-11-22T17:05:22.440Z,79.37
2018-11-22T17:10:21.244Z,78.69
2018-11-22T17:15:19.848Z,79.02
2018-11-22T17:20:18.168Z,79.11
2018-11-22T17:25:21.071Z,79.39
2018-11-22T17:30:21.283Z,78.94
2018-11-22T17:35:20.193Z,78.91
2018-11-22T17:40:23.844Z,78.99
2018-11-22T17:45:25.616Z,78.61
2018-11-22T17:50:25.706Z,79.05
2018-11-22T17:55:24.517Z,78.82
2018-11-22T18:00:25.821Z,78.99
2018-11-22T18:05:27.134Z,78.94
2018-11-22T18:10:22.185Z,78.94
2018-11-22T18:15:20.467Z,79.26
2018-11-22T18:20:20.920Z,78.51
2018-11-22T18:25:19.729Z,78.15
2018-11-22T18:30:22.593Z,78.38
2018-11-22T18:35:20.036Z,78.58
2018-11-22T18:40:19.642Z,78.36
2018-11-22T18:45:22.838Z,78.56
2018-11-22T18:50:21.670Z,78.90
2018-11-22T18:55:19.178Z,78.61
2018-11-22T19:00:23.017Z,78.00
2018-11-22T19:05:20.488Z,78.81
2018-11-22T19:10:20.328Z,78.54
2018-11-22T19:15:19.236Z,78.51
2018-11-22T19:20:19.272Z,79.06
2018-11-22T19:25:17.265Z,79.36
2018-11-22T19:30:19.683Z,79.43
2018-11-22T19:35:20.406Z,79.68
2018-11-22T19:40:20.645Z,79.39
2018-11-22T19:45:19.370Z,79.53
2018-11-22T19:50:18.252Z,79.87
2018-11-22T19:55:16.961Z,79.63
2018-11-22T20:00:16.798Z,79.46
2018-11-22T20:05:15.386Z,79.70
2018-11-22T20:10:16.783Z,79.62
2018-11-22T20:15:14.947Z,79.60
2018-11-22T20:20:14.039Z,79.50
2018-11-22T20:25:12.191Z,79.23
2018-11-22T20:30:27.152Z,79.46
2018-11-22T20:35:26.290Z,79.62
2018-11-22T20:40:27.797Z,79.59
2018-11-22T20:45:29.278Z,79.71
2018-11-22T20:50:28.459Z,79.84
2018-11-22T20:55:27.887Z,79.97
2018-11-22T21:00:29.295Z,80.00
2018-11-22T21:05:27.404Z,80.26
2018-11-22T21:10:26.176Z,80.76
2018-11-22T21:15:28.778Z,80.65
2018-11-22T21:20:27.779Z,80.83
2018-11-22T21:25:25.201Z,82.14
2018-11-22T21:30:26.069Z,82.25
2018-11-22T21:35:25.626Z,83.22
2018-11-22T21:40:24.891Z,83.46
2018-11-22T21:45:26.211Z,84.33
2018-11-22T21:50:24.903Z,84.24
2018-11-22T21:55:23.517Z,84.84
2018-11-22T22:00:25.834Z,84.35
2018-11-22T22:05:23.276Z,85.39
2018-11-22T22:10:20.697Z,86.07
2018-11-22T22:15:19.885Z,86.13
2018-11-22T22:20:18.881Z,85.59
2018-11-22T22:25:18.529Z,85.77
2018-11-22T22:30:18.456Z,85.75
2018-11-22T22:35:15.892Z,86.06
2018-11-22T22:40:15.956Z,85.13
2018-11-22T22:45:14.346Z,85.63
2018-11-22T22:50:14.800Z,86.06
2018-11-22T22:55:12.773Z,86.49
2018-11-22T23:00:20.823Z,85.28
2018-11-22T23:05:18.595Z,85.49
2018-11-22T23:10:16.756Z,86.54
2018-11-22T23:15:15.251Z,85.99
2018-11-22T23:20:15.089Z,86.95
2018-11-22T23:25:13.295Z,86.26
2018-11-22T23:30:15.810Z,85.65
2018-11-22T23:35:13.255Z,85.98
2018-11-22T23:40:19.284Z,86.16
2018-11-22T23:45:18.050Z,85.91
2018-11-22T23:50:18.814Z,85.75
2018-11-22T23:55:16.335Z,85.69
